Terminal Aerodrome Forecast
Issued by NWS Duluth, MN

Home | Current Version | Previous Version | Text Only | Print | Product List | Glossary On
Versions: 1 2 3 4 5 6 7 8 9 10 11 12 13 14 15 16
282
FTUS43 KDLH 121738
TAFDLH
TAF
KDLH 121738Z 1218/1318 34016G25KT P6SM FEW025
     FM130000 32014G22KT P6SM SCT020
     FM131000 31008KT P6SM SCT020=

USA.gov is the U.S. government's official web portal to all federal, state and local government web resources and services.